sensor_id;sensor_type;location;lat;lon;timestamp;temperature;humidity
26212;DHT22;13951;49.516;6.094;2024-01-15T00:01:57;-2.20;99.90
26212;DHT22;13951;49.516;6.094;2024-01-15T00:04:30;-2.20;99.90
26212;DHT22;13951;49.516;6.094;2024-01-15T00:07:03;-2.30;99.90
26212;DHT22;13951;49.516;6.094;2024-01-15T00:09:37;-2.20;99.90
26212;DHT22;13951;49.516;6.094;2024-01-15T00:12:10;-2.20;99.90
26212;DHT22;13951;49.516;6.094;2024-01-15T00:14:43;-2.20;99.90
26212;DHT22;13951;49.516;6.094;2024-01-15T00:17:16;-2.20;99.90
26212;DHT22;13951;49.516;6.094;2024-01-15T00:19:50;-2.20;99.90
26212;DHT22;13951;49.516;6.094;2024-01-15T00:22:25;-2.20;99.90
26212;DHT22;13951;49.516;6.094;2024-01-15T00:24:59;-2.20;99.90
26212;DHT22;13951;49.516;6.094;2024-01-15T00:27:32;-2.10;99.90
26212;DHT22;13951;49.516;6.094;2024-01-15T00:30:06;-2.10;99.90
26212;DHT22;13951;49.516;6.094;2024-01-15T00:32:39;-2.20;99.90
26212;DHT22;13951;49.516;6.094;2024-01-15T00:35:12;-2.10;99.90
26212;DHT22;13951;49.516;6.094;2024-01-15T00:37:45;-2.10;99.90
26212;DHT22;13951;49.516;6.094;2024-01-15T00:40:19;-2.10;99.90
26212;DHT22;13951;49.516;6.094;2024-01-15T00:42:52;-2.10;99.90
26212;DHT22;13951;49.516;6.094;2024-01-15T00:45:25;-2.10;99.90
26212;DHT22;13951;49.516;6.094;2024-01-15T00:47:58;-2.10;99.90
26212;DHT22;13951;49.516;6.094;2024-01-15T00:50:34;-2.10;99.90
26212;DHT22;13951;49.516;6.094;2024-01-15T00:53:07;-2.10;99.90
26212;DHT22;13951;49.516;6.094;2024-01-15T00:55:40;-2.00;99.90
26212;DHT22;13951;49.516;6.094;2024-01-15T00:58:13;-2.00;99.90
26212;DHT22;13951;49.516;6.094;2024-01-15T01:00:46;-2.00;99.90
26212;DHT22;13951;49.516;6.094;2024-01-15T01:03:19;-2.00;99.90
26212;DHT22;13951;49.516;6.094;2024-01-15T01:05:53;-1.90;99.90
26212;DHT22;13951;49.516;6.094;2024-01-15T01:08:26;-1.90;99.90
26212;DHT22;13951;49.516;6.094;2024-01-15T01:10:59;-1.90;99.90
26212;DHT22;13951;49.516;6.094;2024-01-15T01:13:32;-1.90;99.90
26212;DHT22;13951;49.516;6.094;2024-01-15T01:16:06;-1.90;99.90
26212;DHT22;13951;49.516;6.094;2024-01-15T01:18:39;-1.80;99.90
26212;DHT22;13951;49.516;6.094;2024-01-15T01:21:12;-1.80;99.90
26212;DHT22;13951;49.516;6.094;2024-01-15T01:23:46;-1.80;99.90
26212;DHT22;13951;49.516;6.094;2024-01-15T01:26:19;-1.80;99.90
26212;DHT22;13951;49.516;6.094;2024-01-15T01:28:52;-1.80;99.90
26212;DHT22;13951;49.516;6.094;2024-01-15T01:31:25;-1.80;99.90
26212;DHT22;13951;49.516;6.094;2024-01-15T01:33:58;-1.80;99.90
26212;DHT22;13951;49.516;6.094;2024-01-15T01:36:32;-1.70;99.90
26212;DHT22;13951;49.516;6.094;2024-01-15T01:39:05;-1.70;99.90
26212;DHT22;13951;49.516;6.094;2024-01-15T01:41:39;-1.70;99.90
26212;DHT22;13951;49.516;6.094;2024-01-15T01:44:12;-1.70;99.90
26212;DHT22;13951;49.516;6.094;2024-01-15T01:46:45;-1.60;99.90
26212;DHT22;13951;49.516;6.094;2024-01-15T01:49:18;-1.60;99.90
26212;DHT22;13951;49.516;6.094;2024-01-15T01:51:52;-1.70;99.90
26212;DHT22;13951;49.516;6.094;2024-01-15T01:54:28;-1.70;99.90
26212;DHT22;13951;49.516;6.094;2024-01-15T01:57:03;-1.70;99.90
26212;DHT22;13951;49.516;6.094;2024-01-15T01:59:37;-1.60;99.90
26212;DHT22;13951;49.516;6.094;2024-01-15T02:02:12;-1.70;99.90
26212;DHT22;13951;49.516;6.094;2024-01-15T02:04:47;-1.70;99.90
26212;DHT22;13951;49.516;6.094;2024-01-15T02:07:21;-1.60;99.90
26212;DHT22;13951;49.516;6.094;2024-01-15T02:09:54;-1.60;99.90
26212;DHT22;13951;49.516;6.094;2024-01-15T02:12:27;-1.70;99.90
26212;DHT22;13951;49.516;6.094;2024-01-15T02:15:00;-1.70;99.90
26212;DHT22;13951;49.516;6.094;2024-01-15T02:17:34;-1.70;99.90
26212;DHT22;13951;49.516;6.094;2024-01-15T02:20:08;-1.60;99.90
26212;DHT22;13951;49.516;6.094;2024-01-15T02:22:42;-1.70;99.90
26212;DHT22;13951;49.516;6.094;2024-01-15T02:25:15;-1.60;99.90
26212;DHT22;13951;49.516;6.094;2024-01-15T02:27:48;-1.70;99.90
26212;DHT22;13951;49.516;6.094;2024-01-15T02:30:23;-1.60;99.90
26212;DHT22;13951;49.516;6.094;2024-01-15T02:32:58;-1.60;99.90
26212;DHT22;13951;49.516;6.094;2024-01-15T02:35:32;-1.60;99.90
26212;DHT22;13951;49.516;6.094;2024-01-15T02:38:06;-1.60;99.90
26212;DHT22;13951;49.516;6.094;2024-01-15T02:40:39;-1.60;99.90
26212;DHT22;13951;49.516;6.094;2024-01-15T02:43:12;-1.60;99.90
26212;DHT22;13951;49.516;6.094;2024-01-15T02:45:46;-1.60;99.90
26212;DHT22;13951;49.516;6.094;2024-01-15T02:48:20;-1.60;99.90
26212;DHT22;13951;49.516;6.094;2024-01-15T02:50:53;-1.50;99.90
26212;DHT22;13951;49.516;6.094;2024-01-15T02:53:26;-1.50;99.90
26212;DHT22;13951;49.516;6.094;2024-01-15T02:55:59;-1.50;99.90
26212;DHT22;13951;49.516;6.094;2024-01-15T02:58:33;-1.50;99.90
26212;DHT22;13951;49.516;6.094;2024-01-15T03:01:06;-1.50;99.90
26212;DHT22;13951;49.516;6.094;2024-01-15T03:03:40;-1.40;99.90
26212;DHT22;13951;49.516;6.094;2024-01-15T03:06:13;-1.50;99.90
26212;DHT22;13951;49.516;6.094;2024-01-15T03:08:46;-1.40;99.90
26212;DHT22;13951;49.516;6.094;2024-01-15T03:11:19;-1.40;99.90
26212;DHT22;13951;49.516;6.094;2024-01-15T03:13:52;-1.40;99.90
26212;DHT22;13951;49.516;6.094;2024-01-15T03:16:26;-1.40;99.90
26212;DHT22;13951;49.516;6.094;2024-01-15T03:18:59;-1.40;99.90
26212;DHT22;13951;49.516;6.094;2024-01-15T03:21:32;-1.40;99.90
26212;DHT22;13951;49.516;6.094;2024-01-15T03:24:05;-1.40;99.90
26212;DHT22;13951;49.516;6.094;2024-01-15T03:26:39;-1.40;99.90
26212;DHT22;13951;49.516;6.094;2024-01-15T03:29:12;-1.40;99.90
26212;DHT22;13951;49.516;6.094;2024-01-15T03:31:45;-1.40;99.90
26212;DHT22;13951;49.516;6.094;2024-01-15T03:34:18;-1.40;99.90
26212;DHT22;13951;49.516;6.094;2024-01-15T03:36:51;-1.40;99.90
26212;DHT22;13951;49.516;6.094;2024-01-15T03:39:25;-1.40;99.90
26212;DHT22;13951;49.516;6.094;2024-01-15T03:41:58;-1.30;99.90
26212;DHT22;13951;49.516;6.094;2024-01-15T03:44:31;-1.30;99.90
26212;DHT22;13951;49.516;6.094;2024-01-15T03:47:04;-1.40;99.90
26212;DHT22;13951;49.516;6.094;2024-01-15T03:49:37;-1.30;99.90
26212;DHT22;13951;49.516;6.094;2024-01-15T03:52:11;-1.30;99.90
26212;DHT22;13951;49.516;6.094;2024-01-15T03:54:44;-1.30;99.90
26212;DHT22;13951;49.516;6.094;2024-01-15T03:57:17;-1.30;99.90
26212;DHT22;13951;49.516;6.094;2024-01-15T03:59:50;-1.30;99.90
26212;DHT22;13951;49.516;6.094;2024-01-15T04:02:23;-1.30;99.90
26212;DHT22;13951;49.516;6.094;2024-01-15T04:04:56;-1.30;99.90
26212;DHT22;13951;49.516;6.094;2024-01-15T04:07:30;-1.30;99.90
26212;DHT22;13951;49.516;6.094;2024-01-15T04:10:03;-1.30;99.90
26212;DHT22;13951;49.516;6.094;2024-01-15T04:12:36;-1.30;99.90
26212;DHT22;13951;49.516;6.094;2024-01-15T04:15:09;-1.30;99.90
26212;DHT22;13951;49.516;6.094;2024-01-15T04:17:42;-1.30;99.90
26212;DHT22;13951;49.516;6.094;2024-01-15T04:20:16;-1.30;99.90
26212;DHT22;13951;49.516;6.094;2024-01-15T04:22:49;-1.30;99.90
26212;DHT22;13951;49.516;6.094;2024-01-15T04:25:22;-1.30;99.90
26212;DHT22;13951;49.516;6.094;2024-01-15T04:27:55;-1.30;99.90
26212;DHT22;13951;49.516;6.094;2024-01-15T04:30:28;-1.30;99.90
26212;DHT22;13951;49.516;6.094;2024-01-15T04:33:01;-1.20;99.90
26212;DHT22;13951;49.516;6.094;2024-01-15T04:35:35;-1.20;99.90
26212;DHT22;13951;49.516;6.094;2024-01-15T04:38:08;-1.20;99.90
26212;DHT22;13951;49.516;6.094;2024-01-15T04:40:41;-1.20;99.90
26212;DHT22;13951;49.516;6.094;2024-01-15T04:43:14;-1.30;99.90
26212;DHT22;13951;49.516;6.094;2024-01-15T04:45:47;-1.30;99.90
26212;DHT22;13951;49.516;6.094;2024-01-15T04:48:21;-1.30;99.90
26212;DHT22;13951;49.516;6.094;2024-01-15T04:50:56;-1.30;99.90
26212;DHT22;13951;49.516;6.094;2024-01-15T04:53:29;-1.30;99.90
26212;DHT22;13951;49.516;6.094;2024-01-15T04:56:02;-1.30;99.90
26212;DHT22;13951;49.516;6.094;2024-01-15T04:58:35;-1.30;99.90
26212;DHT22;13951;49.516;6.094;2024-01-15T05:01:08;-1.30;99.90
26212;DHT22;13951;49.516;6.094;2024-01-15T05:03:42;-1.20;99.90
26212;DHT22;13951;49.516;6.094;2024-01-15T05:06:15;-1.30;99.90
26212;DHT22;13951;49.516;6.094;2024-01-15T05:08:49;-1.20;99.90
26212;DHT22;13951;49.516;6.094;2024-01-15T05:11:22;-1.30;99.90
26212;DHT22;13951;49.516;6.094;2024-01-15T05:13:55;-1.30;99.90
26212;DHT22;13951;49.516;6.094;2024-01-15T05:16:28;-1.30;99.90
26212;DHT22;13951;49.516;6.094;2024-01-15T05:19:01;-1.30;99.90
26212;DHT22;13951;49.516;6.094;2024-01-15T05:21:34;-1.30;99.90
26212;DHT22;13951;49.516;6.094;2024-01-15T05:24:08;-1.30;99.90
26212;DHT22;13951;49.516;6.094;2024-01-15T05:26:41;-1.30;99.90
26212;DHT22;13951;49.516;6.094;2024-01-15T05:29:14;-1.30;99.90
26212;DHT22;13951;49.516;6.094;2024-01-15T05:31:47;-1.30;99.90
26212;DHT22;13951;49.516;6.094;2024-01-15T05:34:20;-1.30;99.90
26212;DHT22;13951;49.516;6.094;2024-01-15T05:36:54;-1.30;99.90
26212;DHT22;13951;49.516;6.094;2024-01-15T05:39:27;-1.30;99.90
26212;DHT22;13951;49.516;6.094;2024-01-15T05:42:00;-1.30;99.90
26212;DHT22;13951;49.516;6.094;2024-01-15T05:44:33;-1.30;99.90
26212;DHT22;13951;49.516;6.094;2024-01-15T05:47:07;-1.30;99.90
26212;DHT22;13951;49.516;6.094;2024-01-15T05:49:40;-1.30;99.90
26212;DHT22;13951;49.516;6.094;2024-01-15T05:52:13;-1.30;99.90
26212;DHT22;13951;49.516;6.094;2024-01-15T05:54:47;-1.30;99.90
26212;DHT22;13951;49.516;6.094;2024-01-15T05:57:21;-1.30;99.90
26212;DHT22;13951;49.516;6.094;2024-01-15T05:59:54;-1.30;99.90
26212;DHT22;13951;49.516;6.094;2024-01-15T06:02:27;-1.30;99.90
26212;DHT22;13951;49.516;6.094;2024-01-15T06:05:00;-1.30;99.90
26212;DHT22;13951;49.516;6.094;2024-01-15T06:07:36;-1.30;99.90
26212;DHT22;13951;49.516;6.094;2024-01-15T06:10:09;-1.30;99.90
26212;DHT22;13951;49.516;6.094;2024-01-15T06:12:43;-1.30;99.90
26212;DHT22;13951;49.516;6.094;2024-01-15T06:15:17;-1.20;99.90
26212;DHT22;13951;49.516;6.094;2024-01-15T06:17:50;-1.20;99.90
26212;DHT22;13951;49.516;6.094;2024-01-15T06:20:23;-1.20;99.90
26212;DHT22;13951;49.516;6.094;2024-01-15T06:22:56;-1.20;99.90
26212;DHT22;13951;49.516;6.094;2024-01-15T06:25:30;-1.20;99.90
26212;DHT22;13951;49.516;6.094;2024-01-15T06:28:03;-1.20;99.90
26212;DHT22;13951;49.516;6.094;2024-01-15T06:30:37;-1.10;99.90
26212;DHT22;13951;49.516;6.094;2024-01-15T06:33:12;-1.10;99.90
26212;DHT22;13951;49.516;6.094;2024-01-15T06:35:45;-1.10;99.90
26212;DHT22;13951;49.516;6.094;2024-01-15T06:38:18;-1.00;99.90
26212;DHT22;13951;49.516;6.094;2024-01-15T06:40:51;-1.00;99.90
26212;DHT22;13951;49.516;6.094;2024-01-15T06:43:26;-1.10;99.90
26212;DHT22;13951;49.516;6.094;2024-01-15T06:45:59;-1.10;99.90
26212;DHT22;13951;49.516;6.094;2024-01-15T06:48:36;-1.10;99.90
26212;DHT22;13951;49.516;6.094;2024-01-15T06:51:10;-1.00;99.90
26212;DHT22;13951;49.516;6.094;2024-01-15T06:53:43;-1.10;99.90
26212;DHT22;13951;49.516;6.094;2024-01-15T06:56:16;-1.10;99.90
26212;DHT22;13951;49.516;6.094;2024-01-15T06:58:49;-1.00;99.90
26212;DHT22;13951;49.516;6.094;2024-01-15T07:01:22;-1.10;99.90
26212;DHT22;13951;49.516;6.094;2024-01-15T07:03:56;-1.10;99.90
26212;DHT22;13951;49.516;6.094;2024-01-15T07:06:29;-1.10;99.90
26212;DHT22;13951;49.516;6.094;2024-01-15T07:09:03;-1.10;99.90
26212;DHT22;13951;49.516;6.094;2024-01-15T07:11:36;-1.10;99.90
26212;DHT22;13951;49.516;6.094;2024-01-15T07:14:10;-1.10;99.90
26212;DHT22;13951;49.516;6.094;2024-01-15T07:16:43;-1.10;99.90
26212;DHT22;13951;49.516;6.094;2024-01-15T07:19:20;-1.10;99.90
26212;DHT22;13951;49.516;6.094;2024-01-15T07:21:53;-1.10;99.90
26212;DHT22;13951;49.516;6.094;2024-01-15T07:24:29;-1.10;99.90
26212;DHT22;13951;49.516;6.094;2024-01-15T07:27:02;-1.10;99.90
26212;DHT22;13951;49.516;6.094;2024-01-15T07:29:37;-1.00;99.90
26212;DHT22;13951;49.516;6.094;2024-01-15T07:32:15;-1.00;99.90
26212;DHT22;13951;49.516;6.094;2024-01-15T07:34:48;-1.10;99.90
26212;DHT22;13951;49.516;6.094;2024-01-15T07:37:22;-1.10;99.90
26212;DHT22;13951;49.516;6.094;2024-01-15T07:39:56;-1.10;99.90
26212;DHT22;13951;49.516;6.094;2024-01-15T07:42:29;-1.10;99.90
26212;DHT22;13951;49.516;6.094;2024-01-15T07:45:03;-1.10;99.90
26212;DHT22;13951;49.516;6.094;2024-01-15T07:47:36;-1.10;99.90
26212;DHT22;13951;49.516;6.094;2024-01-15T07:50:10;-1.10;99.90
26212;DHT22;13951;49.516;6.094;2024-01-15T07:52:43;-1.10;99.90
26212;DHT22;13951;49.516;6.094;2024-01-15T07:55:16;-1.10;99.90
26212;DHT22;13951;49.516;6.094;2024-01-15T07:57:49;-1.10;99.90
26212;DHT22;13951;49.516;6.094;2024-01-15T08:00:37;-1.10;99.90
26212;DHT22;13951;49.516;6.094;2024-01-15T08:03:11;-1.00;99.90
26212;DHT22;13951;49.516;6.094;2024-01-15T08:05:45;-1.10;99.90
26212;DHT22;13951;49.516;6.094;2024-01-15T08:08:18;-1.00;99.90
26212;DHT22;13951;49.516;6.094;2024-01-15T08:10:54;-1.00;99.90
26212;DHT22;13951;49.516;6.094;2024-01-15T08:13:27;-1.00;99.90
26212;DHT22;13951;49.516;6.094;2024-01-15T08:16:00;-0.90;99.90
26212;DHT22;13951;49.516;6.094;2024-01-15T08:18:35;-0.90;99.90
26212;DHT22;13951;49.516;6.094;2024-01-15T08:21:08;-0.90;99.90
26212;DHT22;13951;49.516;6.094;2024-01-15T08:23:41;-0.90;99.90
26212;DHT22;13951;49.516;6.094;2024-01-15T08:26:15;-0.90;99.90
26212;DHT22;13951;49.516;6.094;2024-01-15T08:28:48;-0.90;99.90
26212;DHT22;13951;49.516;6.094;2024-01-15T08:31:21;-0.90;99.90
26212;DHT22;13951;49.516;6.094;2024-01-15T08:33:55;-0.80;99.90
26212;DHT22;13951;49.516;6.094;2024-01-15T08:36:28;-0.80;99.90
26212;DHT22;13951;49.516;6.094;2024-01-15T08:39:05;-0.80;99.90
26212;DHT22;13951;49.516;6.094;2024-01-15T08:41:38;-0.80;99.90
26212;DHT22;13951;49.516;6.094;2024-01-15T08:44:11;-0.80;99.90
26212;DHT22;13951;49.516;6.094;2024-01-15T08:46:44;-0.80;99.90
26212;DHT22;13951;49.516;6.094;2024-01-15T08:49:17;-0.80;99.90
26212;DHT22;13951;49.516;6.094;2024-01-15T08:51:50;-0.80;99.90
26212;DHT22;13951;49.516;6.094;2024-01-15T08:54:23;-0.80;99.90
26212;DHT22;13951;49.516;6.094;2024-01-15T08:56:57;-0.80;99.90
26212;DHT22;13951;49.516;6.094;2024-01-15T08:59:30;-0.80;99.90
26212;DHT22;13951;49.516;6.094;2024-01-15T09:02:03;-0.70;99.90
26212;DHT22;13951;49.516;6.094;2024-01-15T09:04:36;-0.70;99.90
26212;DHT22;13951;49.516;6.094;2024-01-15T09:07:10;-0.70;99.90
26212;DHT22;13951;49.516;6.094;2024-01-15T09:09:43;-0.70;99.90
26212;DHT22;13951;49.516;6.094;2024-01-15T09:12:16;-0.60;99.90
26212;DHT22;13951;49.516;6.094;2024-01-15T09:14:51;-0.60;99.90
26212;DHT22;13951;49.516;6.094;2024-01-15T09:17:26;-0.60;99.90
26212;DHT22;13951;49.516;6.094;2024-01-15T09:20:01;-0.50;99.90
26212;DHT22;13951;49.516;6.094;2024-01-15T09:22:34;-0.50;99.90
26212;DHT22;13951;49.516;6.094;2024-01-15T09:25:09;-0.50;99.90
26212;DHT22;13951;49.516;6.094;2024-01-15T09:27:45;-0.40;99.90
26212;DHT22;13951;49.516;6.094;2024-01-15T09:30:18;-0.40;99.90
26212;DHT22;13951;49.516;6.094;2024-01-15T09:32:51;-0.40;99.90
26212;DHT22;13951;49.516;6.094;2024-01-15T09:35:24;-0.30;99.90
26212;DHT22;13951;49.516;6.094;2024-01-15T09:37:57;-0.30;99.90
26212;DHT22;13951;49.516;6.094;2024-01-15T09:40:31;-0.20;99.90
26212;DHT22;13951;49.516;6.094;2024-01-15T09:43:06;-0.20;99.90
26212;DHT22;13951;49.516;6.094;2024-01-15T09:45:39;-0.10;99.90
26212;DHT22;13951;49.516;6.094;2024-01-15T09:48:13;-0.10;99.90
26212;DHT22;13951;49.516;6.094;2024-01-15T09:50:46;-0.10;99.90
26212;DHT22;13951;49.516;6.094;2024-01-15T09:53:20;-0.10;99.90
26212;DHT22;13951;49.516;6.094;2024-01-15T09:55:53;-0.10;99.90
26212;DHT22;13951;49.516;6.094;2024-01-15T09:58:27;-0.10;99.90
26212;DHT22;13951;49.516;6.094;2024-01-15T10:01:02;-0.10;99.90
26212;DHT22;13951;49.516;6.094;2024-01-15T10:03:40;-0.10;99.90
26212;DHT22;13951;49.516;6.094;2024-01-15T10:06:17;0.00;99.90
26212;DHT22;13951;49.516;6.094;2024-01-15T10:08:56;0.00;99.90
26212;DHT22;13951;49.516;6.094;2024-01-15T10:11:31;0.00;99.90
26212;DHT22;13951;49.516;6.094;2024-01-15T10:14:05;0.00;99.90
26212;DHT22;13951;49.516;6.094;2024-01-15T10:16:39;0.00;99.90
26212;DHT22;13951;49.516;6.094;2024-01-15T10:19:12;0.10;99.90
26212;DHT22;13951;49.516;6.094;2024-01-15T10:21:46;0.10;99.90
26212;DHT22;13951;49.516;6.094;2024-01-15T10:24:19;0.10;99.90
26212;DHT22;13951;49.516;6.094;2024-01-15T10:27:05;0.10;99.90
26212;DHT22;13951;49.516;6.094;2024-01-15T10:29:40;0.20;99.90
26212;DHT22;13951;49.516;6.094;2024-01-15T10:32:15;0.20;99.90
26212;DHT22;13951;49.516;6.094;2024-01-15T10:34:48;0.20;99.90
26212;DHT22;13951;49.516;6.094;2024-01-15T10:37:25;0.20;99.90
26212;DHT22;13951;49.516;6.094;2024-01-15T10:40:02;0.20;99.90
26212;DHT22;13951;49.516;6.094;2024-01-15T10:42:38;0.30;99.90
26212;DHT22;13951;49.516;6.094;2024-01-15T10:45:11;0.30;99.90
26212;DHT22;13951;49.516;6.094;2024-01-15T10:47:44;0.30;99.90
26212;DHT22;13951;49.516;6.094;2024-01-15T10:50:17;0.30;99.90
26212;DHT22;13951;49.516;6.094;2024-01-15T10:52:51;0.30;99.90
26212;DHT22;13951;49.516;6.094;2024-01-15T10:55:25;0.30;99.90
26212;DHT22;13951;49.516;6.094;2024-01-15T10:58:00;0.30;99.90
26212;DHT22;13951;49.516;6.094;2024-01-15T11:00:35;0.30;99.90
26212;DHT22;13951;49.516;6.094;2024-01-15T11:03:09;0.40;99.90
26212;DHT22;13951;49.516;6.094;2024-01-15T11:05:43;0.40;99.90
26212;DHT22;13951;49.516;6.094;2024-01-15T11:08:17;0.40;99.90
26212;DHT22;13951;49.516;6.094;2024-01-15T11:10:52;0.50;99.90
26212;DHT22;13951;49.516;6.094;2024-01-15T11:16:09;0.50;99.90
26212;DHT22;13951;49.516;6.094;2024-01-15T11:21:31;0.60;99.90
26212;DHT22;13951;49.516;6.094;2024-01-15T11:24:04;0.70;99.90
26212;DHT22;13951;49.516;6.094;2024-01-15T11:26:46;0.70;99.90
26212;DHT22;13951;49.516;6.094;2024-01-15T11:29:33;0.80;99.90
26212;DHT22;13951;49.516;6.094;2024-01-15T11:32:08;0.80;99.90
26212;DHT22;13951;49.516;6.094;2024-01-15T11:34:57;0.90;99.90
26212;DHT22;13951;49.516;6.094;2024-01-15T11:43:07;1.00;99.90
26212;DHT22;13951;49.516;6.094;2024-01-15T11:45:42;1.00;99.90
26212;DHT22;13951;49.516;6.094;2024-01-15T11:48:16;1.00;99.90
26212;DHT22;13951;49.516;6.094;2024-01-15T11:50:51;1.00;99.90
26212;DHT22;13951;49.516;6.094;2024-01-15T11:53:40;1.10;99.90
26212;DHT22;13951;49.516;6.094;2024-01-15T11:56:17;1.00;99.90
26212;DHT22;13951;49.516;6.094;2024-01-15T11:58:50;1.10;99.90
26212;DHT22;13951;49.516;6.094;2024-01-15T12:01:24;1.10;99.90
26212;DHT22;13951;49.516;6.094;2024-01-15T12:03:58;1.10;99.90
26212;DHT22;13951;49.516;6.094;2024-01-15T12:06:31;1.10;99.90
26212;DHT22;13951;49.516;6.094;2024-01-15T12:09:08;1.20;99.90
26212;DHT22;13951;49.516;6.094;2024-01-15T12:11:46;1.10;99.90
26212;DHT22;13951;49.516;6.094;2024-01-15T12:14:23;1.00;99.90
26212;DHT22;13951;49.516;6.094;2024-01-15T12:16:57;1.00;99.90
26212;DHT22;13951;49.516;6.094;2024-01-15T12:19:30;1.10;99.90
26212;DHT22;13951;49.516;6.094;2024-01-15T12:22:04;1.10;99.90
26212;DHT22;13951;49.516;6.094;2024-01-15T12:24:37;1.20;99.90
26212;DHT22;13951;49.516;6.094;2024-01-15T12:27:11;1.20;99.90
26212;DHT22;13951;49.516;6.094;2024-01-15T12:29:44;1.20;99.90
26212;DHT22;13951;49.516;6.094;2024-01-15T12:32:20;1.30;99.90
26212;DHT22;13951;49.516;6.094;2024-01-15T12:34:56;1.40;99.90
26212;DHT22;13951;49.516;6.094;2024-01-15T12:37:29;1.40;99.90
26212;DHT22;13951;49.516;6.094;2024-01-15T12:40:03;1.50;99.90
26212;DHT22;13951;49.516;6.094;2024-01-15T12:42:40;1.50;99.90
26212;DHT22;13951;49.516;6.094;2024-01-15T12:45:13;1.50;99.90
26212;DHT22;13951;49.516;6.094;2024-01-15T12:47:47;1.40;99.90
26212;DHT22;13951;49.516;6.094;2024-01-15T12:50:24;1.40;99.90
26212;DHT22;13951;49.516;6.094;2024-01-15T12:52:57;1.40;99.90
26212;DHT22;13951;49.516;6.094;2024-01-15T12:55:32;1.40;99.90
26212;DHT22;13951;49.516;6.094;2024-01-15T12:58:07;1.50;99.90
26212;DHT22;13951;49.516;6.094;2024-01-15T13:00:40;1.50;99.90
26212;DHT22;13951;49.516;6.094;2024-01-15T13:03:13;1.50;99.90
26212;DHT22;13951;49.516;6.094;2024-01-15T13:05:47;1.40;99.90
26212;DHT22;13951;49.516;6.094;2024-01-15T13:08:20;1.40;99.90
26212;DHT22;13951;49.516;6.094;2024-01-15T13:10:55;1.40;99.90
26212;DHT22;13951;49.516;6.094;2024-01-15T13:13:29;1.30;99.90
26212;DHT22;13951;49.516;6.094;2024-01-15T13:16:04;1.30;99.90
26212;DHT22;13951;49.516;6.094;2024-01-15T13:18:37;1.60;99.90
26212;DHT22;13951;49.516;6.094;2024-01-15T13:21:11;2.20;99.90
26212;DHT22;13951;49.516;6.094;2024-01-15T13:23:45;2.90;99.90
26212;DHT22;13951;49.516;6.094;2024-01-15T13:26:18;3.70;99.90
26212;DHT22;13951;49.516;6.094;2024-01-15T13:28:53;4.30;99.90
26212;DHT22;13951;49.516;6.094;2024-01-15T13:31:27;4.80;99.90
26212;DHT22;13951;49.516;6.094;2024-01-15T13:34:01;4.80;99.90
26212;DHT22;13951;49.516;6.094;2024-01-15T13:36:34;4.70;99.90
26212;DHT22;13951;49.516;6.094;2024-01-15T13:39:07;4.60;99.90
26212;DHT22;13951;49.516;6.094;2024-01-15T13:41:44;4.30;99.90
26212;DHT22;13951;49.516;6.094;2024-01-15T13:44:17;3.90;99.90
26212;DHT22;13951;49.516;6.094;2024-01-15T13:46:51;3.60;99.90
26212;DHT22;13951;49.516;6.094;2024-01-15T13:49:25;3.30;99.90
26212;DHT22;13951;49.516;6.094;2024-01-15T13:51:58;2.90;99.90
26212;DHT22;13951;49.516;6.094;2024-01-15T13:54:31;2.60;99.90
26212;DHT22;13951;49.516;6.094;2024-01-15T13:57:21;2.40;99.90
26212;DHT22;13951;49.516;6.094;2024-01-15T13:59:55;2.20;99.90
26212;DHT22;13951;49.516;6.094;2024-01-15T14:02:28;2.20;99.90
26212;DHT22;13951;49.516;6.094;2024-01-15T14:05:01;2.10;99.90
26212;DHT22;13951;49.516;6.094;2024-01-15T14:07:35;2.10;99.90
26212;DHT22;13951;49.516;6.094;2024-01-15T14:10:09;2.10;99.90
26212;DHT22;13951;49.516;6.094;2024-01-15T14:12:43;2.10;99.90
26212;DHT22;13951;49.516;6.094;2024-01-15T14:15:16;2.10;99.90
26212;DHT22;13951;49.516;6.094;2024-01-15T14:17:49;2.10;99.90
26212;DHT22;13951;49.516;6.094;2024-01-15T14:20:23;2.00;99.90
26212;DHT22;13951;49.516;6.094;2024-01-15T14:22:56;1.90;99.90
26212;DHT22;13951;49.516;6.094;2024-01-15T14:25:29;1.80;99.90
26212;DHT22;13951;49.516;6.094;2024-01-15T14:28:02;1.70;99.90
26212;DHT22;13951;49.516;6.094;2024-01-15T14:30:35;1.70;99.90
26212;DHT22;13951;49.516;6.094;2024-01-15T14:33:09;1.60;99.90
26212;DHT22;13951;49.516;6.094;2024-01-15T14:35:42;1.50;99.90
26212;DHT22;13951;49.516;6.094;2024-01-15T14:38:15;1.50;99.90
26212;DHT22;13951;49.516;6.094;2024-01-15T14:40:49;1.40;99.90
26212;DHT22;13951;49.516;6.094;2024-01-15T14:43:22;1.40;99.90
26212;DHT22;13951;49.516;6.094;2024-01-15T14:45:55;1.30;99.90
26212;DHT22;13951;49.516;6.094;2024-01-15T14:48:29;1.30;99.90
26212;DHT22;13951;49.516;6.094;2024-01-15T14:51:03;1.30;99.90
26212;DHT22;13951;49.516;6.094;2024-01-15T14:53:36;1.20;99.90
26212;DHT22;13951;49.516;6.094;2024-01-15T14:56:09;1.20;99.90
26212;DHT22;13951;49.516;6.094;2024-01-15T14:58:42;1.20;99.90
26212;DHT22;13951;49.516;6.094;2024-01-15T15:01:15;1.10;99.90
26212;DHT22;13951;49.516;6.094;2024-01-15T15:03:49;1.10;99.90
26212;DHT22;13951;49.516;6.094;2024-01-15T15:06:22;1.10;99.90
26212;DHT22;13951;49.516;6.094;2024-01-15T15:09:00;1.20;99.90
26212;DHT22;13951;49.516;6.094;2024-01-15T15:11:34;1.10;99.90
26212;DHT22;13951;49.516;6.094;2024-01-15T15:14:08;1.00;99.90
26212;DHT22;13951;49.516;6.094;2024-01-15T15:16:41;1.00;99.90
26212;DHT22;13951;49.516;6.094;2024-01-15T15:19:14;1.00;99.90
26212;DHT22;13951;49.516;6.094;2024-01-15T15:21:48;1.00;99.90
26212;DHT22;13951;49.516;6.094;2024-01-15T15:24:21;0.90;99.90
26212;DHT22;13951;49.516;6.094;2024-01-15T15:26:54;0.90;99.90
26212;DHT22;13951;49.516;6.094;2024-01-15T15:29:30;0.90;99.90
26212;DHT22;13951;49.516;6.094;2024-01-15T15:32:03;0.90;99.90
26212;DHT22;13951;49.516;6.094;2024-01-15T15:34:36;0.90;99.90
26212;DHT22;13951;49.516;6.094;2024-01-15T15:37:10;0.80;99.90
26212;DHT22;13951;49.516;6.094;2024-01-15T15:39:46;0.80;99.90
26212;DHT22;13951;49.516;6.094;2024-01-15T15:42:19;0.70;99.90
26212;DHT22;13951;49.516;6.094;2024-01-15T15:44:52;0.70;99.90
26212;DHT22;13951;49.516;6.094;2024-01-15T15:47:31;0.60;99.90
26212;DHT22;13951;49.516;6.094;2024-01-15T15:50:05;0.60;99.90
26212;DHT22;13951;49.516;6.094;2024-01-15T15:52:38;0.50;99.90
26212;DHT22;13951;49.516;6.094;2024-01-15T15:55:11;0.50;99.90
26212;DHT22;13951;49.516;6.094;2024-01-15T15:57:44;0.50;99.90
26212;DHT22;13951;49.516;6.094;2024-01-15T16:00:18;0.40;99.90
26212;DHT22;13951;49.516;6.094;2024-01-15T16:02:51;0.40;99.90
26212;DHT22;13951;49.516;6.094;2024-01-15T16:05:24;0.40;99.90
26212;DHT22;13951;49.516;6.094;2024-01-15T16:08:14;0.40;99.90
26212;DHT22;13951;49.516;6.094;2024-01-15T16:10:47;0.40;99.90
26212;DHT22;13951;49.516;6.094;2024-01-15T16:13:25;0.40;99.90
26212;DHT22;13951;49.516;6.094;2024-01-15T16:15:58;0.40;99.90
26212;DHT22;13951;49.516;6.094;2024-01-15T16:18:51;0.40;99.90
26212;DHT22;13951;49.516;6.094;2024-01-15T16:21:44;0.40;99.90
26212;DHT22;13951;49.516;6.094;2024-01-15T16:24:38;0.40;99.90
26212;DHT22;13951;49.516;6.094;2024-01-15T16:27:24;0.40;99.90
26212;DHT22;13951;49.516;6.094;2024-01-15T16:29:57;0.40;99.90
26212;DHT22;13951;49.516;6.094;2024-01-15T16:32:30;0.40;99.90